createdAt,value
2023-01-17T19:41:49.583Z,28.17
2023-01-17T19:44:16.341Z,26.67
2023-01-17T19:46:43.933Z,25.15
2023-01-17T19:49:10.728Z,27.60
2023-01-17T19:51:39.421Z,25.63
2023-01-17T19:54:07.996Z,25.00
2023-01-17T19:56:35.153Z,28.58
2023-01-17T19:59:02.385Z,27.75
2023-01-17T20:01:32.192Z,25.45
2023-01-17T20:04:00.037Z,27.95
2023-01-17T20:06:29.099Z,27.15
2023-01-17T20:08:56.239Z,28.15
2023-01-17T20:11:25.228Z,30.15
2023-01-17T20:13:54.378Z,29.83
2023-01-17T20:16:22.034Z,28.58
2023-01-17T20:18:49.618Z,27.17
2023-01-17T20:21:21.528Z,27.13
2023-01-17T20:23:50.176Z,29.55
2023-01-17T20:26:35.071Z,29.30
2023-01-17T20:29:04.537Z,29.92
2023-01-17T20:31:32.328Z,30.27
2023-01-17T20:33:59.064Z,29.05
2023-01-17T20:36:29.019Z,32.88
2023-01-17T20:38:57.191Z,28.30
2023-01-17T20:41:25.841Z,29.70
2023-01-17T20:43:55.386Z,26.38
2023-01-17T20:46:23.894Z,30.77
2023-01-17T20:48:53.134Z,30.95
2023-01-17T20:51:20.660Z,30.65
2023-01-17T20:53:51.553Z,31.08
2023-01-17T20:56:19.100Z,26.83
2023-01-17T20:58:45.888Z,29.92
2023-01-17T21:01:13.854Z,27.23
2023-01-17T21:03:40.705Z,27.30
2023-01-17T21:06:09.484Z,29.55
2023-01-17T21:08:40.770Z,28.67
2023-01-17T21:11:08.954Z,30.83
2023-01-17T21:13:35.623Z,27.25
2023-01-17T21:16:02.559Z,26.55
2023-01-17T21:18:31.989Z,26.70
2023-01-17T21:21:04.047Z,26.40
2023-01-17T21:23:30.704Z,26.13
2023-01-17T21:25:57.944Z,27.02
2023-01-17T21:28:27.567Z,26.23
2023-01-17T21:30:54.573Z,27.02
2023-01-17T21:33:24.441Z,29.67
2023-01-17T21:35:51.293Z,27.38
2023-01-17T21:38:18.068Z,25.27
2023-01-17T21:40:45.233Z,28.02
2023-01-17T21:43:12.188Z,28.77
2023-01-17T21:45:39.383Z,31.20
2023-01-17T21:48:07.268Z,26.15
2023-01-17T21:50:34.499Z,31.35
2023-01-17T21:53:01.237Z,29.50
2023-01-17T21:55:46.450Z,30.15
2023-01-17T21:58:33.171Z,30.35
2023-01-17T22:01:09.064Z,34.75
2023-01-17T22:03:36.451Z,32.95
2023-01-17T22:06:05.019Z,30.33
2023-01-17T22:08:33.082Z,30.75
2023-01-17T22:11:07.605Z,31.60
2023-01-17T22:13:35.382Z,30.35
2023-01-17T22:16:04.277Z,31.25
2023-01-17T22:18:32.950Z,32.45
2023-01-17T22:21:04.310Z,32.83
2023-01-17T22:23:31.025Z,45.05
2023-01-17T22:26:05.692Z,32.72
2023-01-17T22:28:33.538Z,31.58
2023-01-17T22:31:14.669Z,31.48
2023-01-17T22:33:43.338Z,35.13
2023-01-17T22:36:11.287Z,34.47
2023-01-17T22:38:37.861Z,39.08
2023-01-17T22:41:09.802Z,33.95
2023-01-17T22:43:41.980Z,35.42
2023-01-17T22:46:11.135Z,36.58
2023-01-17T22:48:38.973Z,33.60
2023-01-17T22:51:14.173Z,36.70
2023-01-17T22:53:45.223Z,35.15
2023-01-17T22:56:14.935Z,38.47
2023-01-17T22:58:44.823Z,39.67
2023-01-17T23:01:17.223Z,40.38
2023-01-17T23:03:44.809Z,39.15
2023-01-17T23:06:12.874Z,38.53
2023-01-17T23:08:42.481Z,41.20
2023-01-17T23:11:37.082Z,42.40
2023-01-17T23:14:03.818Z,46.80
2023-01-17T23:16:49.187Z,47.55
2023-01-17T23:19:24.873Z,43.90
2023-01-17T23:22:12.732Z,48.15
2023-01-17T23:24:43.103Z,44.33
2023-01-17T23:27:42.054Z,43.55
2023-01-17T23:30:11.863Z,42.40
2023-01-17T23:32:39.922Z,35.53
2023-01-17T23:35:07.266Z,42.08
2023-01-17T23:37:52.611Z,41.20
2023-01-17T23:40:19.632Z,41.38
2023-01-17T23:43:05.001Z,40.45
2023-01-17T23:45:34.971Z,40.10
2023-01-17T23:48:02.129Z,38.10
2023-01-17T23:50:28.834Z,40.92
2023-01-17T23:52:55.807Z,41.95
2023-01-17T23:55:23.241Z,38.95
2023-01-17T23:57:51.650Z,41.83
